Time;durP1;ratioP1;P1;durP2;ratioP2;P2;SDS_P1;SDS_P2;PMS_P1;PMS_P2;Temp;Humidity;BMP_temperature;BMP_pressure;BME280_temperature;BME280_humidity;BME280_pressure;Samples;Min_cycle;Max_cycle;Signal;HPM_P1;HPM_P2
2022/05/06 00:01:25;;;;;;;11.43;8.52;;;;;;;;;;5036944;28;20045;-69
2022/05/06 00:03:50;;;;;;;12.15;8.75;;;;;;;;;;5041998;28;20060;-71
2022/05/06 00:06:16;;;;;;;11.63;8.20;;;;;;;;;;5034942;28;20250;-69
2022/05/06 00:08:41;;;;;;;12.02;8.50;;;;;;;;;;5034018;28;20356;-68
2022/05/06 00:11:07;;;;;;;11.90;8.40;;;;;;;;;;5050088;28;20025;-70
2022/05/06 00:13:32;;;;;;;11.48;8.48;;;;;;;;;;5036033;28;20274;-69
2022/05/06 00:15:57;;;;;;;10.68;8.07;;;;;;;;;;5043135;28;20065;-69
2022/05/06 00:18:23;;;;;;;9.63;8.07;;;;;;;12.28;nan;101049.53;5061943;28;20119;-69
2022/05/06 00:20:48;;;;;;;12.00;8.98;;;;;;;;;;5053291;28;20286;-71
2022/05/06 00:23:13;;;;;;;10.65;8.00;;;;;;;;;;5035748;28;20053;-68
2022/05/06 00:25:38;;;;;;;11.80;8.30;;;;;;;;;;5040332;28;20037;-69
2022/05/06 00:28:04;;;;;;;15.73;8.70;;;;;;;12.23;nan;101039.63;5034454;28;20711;-69
2022/05/06 00:30:29;;;;;;;11.80;8.10;;;;;;;;;;5035136;28;20044;-69
2022/05/06 00:32:55;;;;;;;14.60;9.07;;;;;;;;;;5040408;28;20037;-69
2022/05/06 00:35:20;;;;;;;13.40;8.65;;;;;;;;;;5040899;28;20381;-69
2022/05/06 00:37:45;;;;;;;10.97;8.07;;;;;;;;;;5042555;28;20630;-68
2022/05/06 00:40:13;;;;;;;12.80;8.43;;;;;;;;;;5017398;28;20053;-70
2022/05/06 00:42:38;;;;;;;17.30;9.20;;;;;;;;;;5048094;28;20321;-69
2022/05/06 00:45:05;;;;;;;14.05;8.68;;;;;;;;;;5034587;28;20069;-68
2022/05/06 00:47:30;;;;;;;12.98;8.80;;;;;;;;;;5052688;28;20154;-69
2022/05/06 00:49:55;;;;;;;10.47;8.73;;;;;;;;;;5049295;28;20045;-69
2022/05/06 00:52:21;;;;;;;11.43;8.80;;;;;;;;;;5023511;28;20488;-68
2022/05/06 00:54:46;;;;;;;12.35;8.80;;;;;;;;;;5049818;28;20059;-69
2022/05/06 00:57:12;;;;;;;13.93;9.40;;;;;;;;;;5050018;28;20079;-69
2022/05/06 01:00:17;;;;;;;15.38;9.10;;;;;;;;;;5044221;28;20057;-69
2022/05/06 01:02:23;;;;;;;12.25;8.50;;;;;;;;;;5034815;28;20077;-69
2022/05/06 01:04:49;;;;;;;13.73;9.23;;;;;;;;;;5028861;28;20068;-69
2022/05/06 01:07:15;;;;;;;12.30;9.02;;;;;;;;;;5021925;28;20068;-69
2022/05/06 01:09:41;;;;;;;15.23;9.00;;;;;;;;;;5016408;28;20056;-69
2022/05/06 01:12:06;;;;;;;11.05;8.60;;;;;;;;;;5045935;28;20041;-69
2022/05/06 01:14:35;;;;;;;11.20;8.55;;;;;;;;;;5023018;28;20183;-69
2022/05/06 01:17:00;;;;;;;14.52;9.05;;;;;;;;;;5039575;28;20116;-69
2022/05/06 01:19:25;;;;;;;16.13;9.47;;;;;;;;;;5056164;28;20045;-68
2022/05/06 01:21:52;;;;;;;13.33;8.63;;;;;;;;;;5047540;28;20069;-67
2022/05/06 01:24:18;;;;;;;14.30;8.50;;;;;;;;;;5045700;28;20254;-68
2022/05/06 01:26:53;;;;;;;13.07;8.67;;;;;;;;;;5041247;28;20096;-68
2022/05/06 01:29:20;;;;;;;12.45;9.35;;;;;;;;;;5062103;28;20259;-68
2022/05/06 01:31:45;;;;;;;12.80;8.98;;;;;;;;;;5025105;28;20117;-68
2022/05/06 01:34:13;;;;;;;12.68;8.95;;;;;;;;;;5021292;28;20062;-69
2022/05/06 01:36:40;;;;;;;15.20;8.77;;;;;;;;;;5022632;28;20120;-69
2022/05/06 01:39:06;;;;;;;13.07;9.40;;;;;;;;;;5033958;28;20096;-70
2022/05/06 01:41:35;;;;;;;15.07;9.13;;;;;;;;;;5031801;28;20037;-69
2022/05/06 01:44:04;;;;;;;15.52;8.82;;;;;;;;;;5037747;28;20046;-67
2022/05/06 01:46:29;;;;;;;13.30;8.55;;;;;;;;;;5020413;28;20033;-69
2022/05/06 01:48:55;;;;;;;11.15;8.57;;;;;;;;;;5023348;28;20784;-68
2022/05/06 01:51:22;;;;;;;14.40;8.50;;;;;;;;;;5038416;28;20040;-69
2022/05/06 01:53:48;;;;;;;12.18;8.30;;;;;;;;;;5043304;28;20102;-69
2022/05/06 01:56:17;;;;;;;12.93;8.35;;;;;;;;;;5045892;28;20040;-68
2022/05/06 01:58:42;;;;;;;10.77;8.13;;;;;;;;;;4994944;28;1281561;-69
2022/05/06 02:01:07;;;;;;;15.00;8.70;;;;;;;;;;5035787;28;20038;-70
2022/05/06 02:06:16;;;;;;;10.57;7.80;;;;;;;;;;5029334;28;20038;-69
2022/05/06 02:08:41;;;;;;;13.07;8.63;;;;;;;11.85;nan;101008.94;5029231;28;20454;-68
2022/05/06 02:11:07;;;;;;;12.45;7.68;;;;;;;;;;5031561;28;20353;-68
2022/05/06 02:13:33;;;;;;;10.48;7.90;;;;;;;;;;5017656;28;20121;-69
2022/05/06 02:15:58;;;;;;;11.25;7.88;;;;;;;;;;5027108;28;20065;-69
2022/05/06 02:18:24;;;;;;;16.33;9.13;;;;;;;;;;5016452;28;20474;-69
2022/05/06 02:20:49;;;;;;;12.50;7.87;;;;;;;;;;5026700;28;20084;-69
2022/05/06 02:23:14;;;;;;;11.73;8.00;;;;;;;;;;5014889;28;20283;-68
2022/05/06 02:25:40;;;;;;;10.50;7.90;;;;;;;;;;5030987;28;20033;-68
2022/05/06 02:28:07;;;;;;;12.00;7.82;;;;;;;;;;5032699;28;20036;-69
2022/05/06 02:33:23;;;;;;;12.15;7.82;;;;;;;;;;5030126;28;20037;-70
2022/05/06 02:35:48;;;;;;;9.90;7.15;;;;;;;;;;5035824;28;20045;-70
2022/05/06 02:38:14;;;;;;;13.25;8.13;;;;;;;;;;5024573;28;20083;-69
2022/05/06 02:40:39;;;;;;;10.07;7.17;;;;;;;;;;5029722;28;20400;-69
2022/05/06 02:43:05;;;;;;;12.48;7.53;;;;;;;;;;5030183;28;20296;-69
2022/05/06 02:45:31;;;;;;;14.38;7.63;;;;;;;;;;5026406;28;20459;-69
2022/05/06 02:47:57;;;;;;;9.02;7.15;;;;;;;;;;5013854;28;20858;-69
2022/05/06 02:50:23;;;;;;;10.88;6.80;;;;;;;;;;5026526;28;20037;-69
2022/05/06 02:52:48;;;;;;;9.07;7.30;;;;;;;;;;5031191;28;20483;-68
2022/05/06 02:55:13;;;;;;;11.43;7.82;;;;;;;;;;5030342;28;20034;-68
2022/05/06 02:57:38;;;;;;;10.73;7.67;;;;;;;;;;5024205;28;20051;-69
2022/05/06 03:00:04;;;;;;;13.27;8.23;;;;;;;;;;5029448;28;20479;-69
2022/05/06 03:02:30;;;;;;;10.45;7.15;;;;;;;;;;5041333;28;20500;-70
2022/05/06 03:04:55;;;;;;;12.38;7.55;;;;;;;;;;5032674;28;20037;-70
2022/05/06 03:07:20;;;;;;;13.57;7.65;;;;;;;;;;5047473;28;20047;-69
2022/05/06 03:09:46;;;;;;;11.43;7.30;;;;;;;;;;5051753;28;20383;-69
2022/05/06 03:12:12;;;;;;;10.07;7.53;;;;;;;;;;5029919;28;20099;-69
2022/05/06 03:14:37;;;;;;;13.45;7.10;;;;;;;;;;5036452;28;20030;-69
2022/05/06 03:17:02;;;;;;;10.73;7.57;;;;;;;;;;5044050;28;20124;-69
2022/05/06 03:19:28;;;;;;;15.30;7.78;;;;;;;;;;5047813;28;20547;-69
2022/05/06 03:21:54;;;;;;;11.13;7.43;;;;;;;;;;5036146;28;20034;-70
2022/05/06 03:24:20;;;;;;;13.45;7.65;;;;;;;11.67;nan;101009.72;5042376;28;20313;-69
2022/05/06 03:26:45;;;;;;;10.02;7.70;;;;;;;;;;5046734;28;20087;-68
2022/05/06 03:29:11;;;;;;;11.30;8.07;;;;;;;;;;5037433;28;20103;-67
2022/05/06 03:31:37;;;;;;;14.77;8.02;;;;;;;;;;5040041;28;20099;-69
2022/05/06 03:34:03;;;;;;;10.55;7.93;;;;;;;;;;5043592;28;20038;-68
2022/05/06 03:36:28;;;;;;;11.48;7.53;;;;;;;;;;5040124;28;20116;-69
2022/05/06 03:38:54;;;;;;;10.50;7.60;;;;;;;;;;5033042;28;20457;-70
2022/05/06 03:41:19;;;;;;;11.38;7.90;;;;;;;;;;5040879;28;20048;-68
2022/05/06 03:43:44;;;;;;;13.47;7.90;;;;;;;;;;5033029;28;20403;-69
2022/05/06 03:46:10;;;;;;;13.85;7.80;;;;;;;;;;5020612;28;20086;-70
2022/05/06 03:48:35;;;;;;;14.38;7.88;;;;;;;;;;5050866;28;20032;-69
2022/05/06 03:53:45;;;;;;;14.95;8.15;;;;;;;;;;5042340;28;20045;-68
2022/05/06 03:56:10;;;;;;;14.57;9.33;;;;;;;;;;5038769;28;20036;-70
2022/05/06 03:58:35;;;;;;;12.93;8.60;;;;;;;;;;5039036;28;20289;-68
2022/05/06 04:01:02;;;;;;;14.30;8.90;;;;;;;;;;5036167;28;20037;-68
2022/05/06 04:03:28;;;;;;;13.48;8.65;;;;;;;;;;5049280;28;20060;-69
2022/05/06 04:05:53;;;;;;;18.30;8.23;;;;;;;;;;5048330;28;20040;-70
2022/05/06 04:08:19;;;;;;;10.93;8.18;;;;;;;;;;5041154;28;20034;-68
2022/05/06 04:10:44;;;;;;;16.67;7.90;;;;;;;;;;5050689;28;20143;-68
2022/05/06 04:13:10;;;;;;;13.90;8.40;;;;;;;;;;5056861;28;20242;-68
2022/05/06 04:15:36;;;;;;;19.08;8.93;;;;;;;;;;5062031;28;20353;-71
2022/05/06 04:18:01;;;;;;;19.45;8.98;;;;;;;;;;5071435;28;20037;-69
2022/05/06 04:23:29;;;;;;;16.33;8.40;;;;;;;;;;5079082;28;20044;-70
2022/05/06 04:26:01;;;;;;;15.80;8.32;;;;;;;;;;5053876;28;20036;-69
2022/05/06 04:28:27;;;;;;;15.35;8.88;;;;;;;;;;5051638;28;20045;-70
2022/05/06 04:30:53;;;;;;;14.77;8.30;;;;;;;;;;5025133;28;20037;-70
2022/05/06 04:33:19;;;;;;;14.27;8.82;;;;;;;;;;5052444;28;20418;-69
2022/05/06 04:35:44;;;;;;;14.90;8.45;;;;;;;;;;5053052;28;20039;-70
2022/05/06 04:38:11;;;;;;;17.90;8.52;;;;;;;;;;5059572;28;20119;-69
2022/05/06 04:40:37;;;;;;;17.23;8.77;;;;;;;;;;5061153;28;20032;-69
2022/05/06 04:43:03;;;;;;;15.05;8.20;;;;;;;;;;5050728;28;20045;-69
2022/05/06 04:45:29;;;;;;;18.73;8.98;;;;;;;;;;5042873;28;20032;-69
2022/05/06 04:47:54;;;;;;;16.73;8.77;;;;;;;;;;5049325;28;20036;-69
2022/05/06 04:50:20;;;;;;;17.98;8.20;;;;;;;;;;5047680;28;20071;-70
2022/05/06 04:52:45;;;;;;;12.98;8.63;;;;;;;;;;5057482;28;20474;-70
2022/05/06 04:55:10;;;;;;;15.60;8.75;;;;;;;;;;5031337;28;20057;-69
2022/05/06 04:57:36;;;;;;;14.23;8.60;;;;;;;;;;5052117;28;20422;-68
2022/05/06 05:00:01;;;;;;;12.88;8.75;;;;;;;;;;5053871;28;20472;-67
2022/05/06 05:02:27;;;;;;;22.40;8.95;;;;;;;;;;5053830;28;20040;-70
2022/05/06 05:04:56;;;;;;;14.82;9.02;;;;;;;;;;5045424;28;20570;-72
2022/05/06 05:07:22;;;;;;;18.58;9.23;;;;;;;;;;5051250;28;20491;-71
2022/05/06 05:09:47;;;;;;;22.57;9.33;;;;;;;;;;5054932;28;20067;-72
2022/05/06 05:12:12;;;;;;;21.75;9.48;;;;;;;;;;5037731;28;20274;-69
2022/05/06 05:14:38;;;;;;;21.87;9.27;;;;;;;;;;5052452;28;20033;-69
2022/05/06 05:17:03;;;;;;;19.73;9.25;;;;;;;;;;5024572;28;20907;-69
2022/05/06 05:19:28;;;;;;;17.45;8.90;;;;;;;;;;5047839;28;20036;-68
2022/05/06 05:21:54;;;;;;;16.33;9.60;;;;;;;;;;5034983;28;20036;-69
2022/05/06 05:24:19;;;;;;;19.07;9.23;;;;;;;;;;5031213;28;20084;-70
2022/05/06 05:26:44;;;;;;;22.10;9.43;;;;;;;;;;5034385;28;20749;-73
2022/05/06 05:29:09;;;;;;;20.47;9.80;;;;;;;;;;5050243;28;20257;-71
2022/05/06 05:31:35;;;;;;;18.37;9.50;;;;;;;;;;5045446;28;20740;-72
2022/05/06 05:34:00;;;;;;;20.90;9.20;;;;;;;;;;5029261;28;20307;-71
2022/05/06 05:36:25;;;;;;;14.73;8.93;;;;;;;;;;5044533;28;20719;-69
2022/05/06 05:38:51;;;;;;;13.65;8.35;;;;;;;;;;5038144;28;20294;-69
2022/05/06 05:41:16;;;;;;;28.00;9.03;;;;;;;;;;5052314;28;20136;-69
2022/05/06 05:49:09;;;;;;;18.58;9.00;;;;;;;;;;5043525;28;20043;-71
2022/05/06 05:51:34;;;;;;;17.03;8.43;;;;;;;;;;5049982;28;20033;-73
2022/05/06 05:53:59;;;;;;;22.20;8.70;;;;;;;;;;5045750;28;20048;-71
2022/05/06 05:56:25;;;;;;;16.83;9.02;;;;;;;;;;5020682;28;20075;-71
2022/05/06 05:58:51;;;;;;;18.33;8.95;;;;;;;;;;5028718;28;20119;-69
2022/05/06 06:01:16;;;;;;;14.20;8.85;;;;;;;;;;5036957;28;20588;-71
2022/05/06 06:03:42;;;;;;;15.53;8.97;;;;;;;;;;5024798;28;20041;-71
2022/05/06 06:06:07;;;;;;;14.07;8.97;;;;;;;;;;5012878;28;20388;-72
2022/05/06 06:08:32;;;;;;;15.10;8.73;;;;;;;;;;5029684;28;20037;-72
2022/05/06 06:11:01;;;;;;;16.35;8.30;;;;;;;;;;5047593;28;20072;-72
2022/05/06 06:13:27;;;;;;;13.63;8.80;;;;;;;;;;5050289;28;20033;-72
2022/05/06 06:15:52;;;;;;;19.20;8.43;;;;;;;;;;5028837;28;20761;-72
2022/05/06 06:18:20;;;;;;;14.02;8.73;;;;;;;;;;5051081;28;20044;-71
2022/05/06 06:20:45;;;;;;;15.98;8.80;;;;;;;;;;5041548;28;20037;-71
2022/05/06 06:23:11;;;;;;;12.82;8.40;;;;;;;;;;5033809;28;20140;-70
2022/05/06 06:25:36;;;;;;;16.02;8.45;;;;;;;;;;5051503;28;20045;-72
2022/05/06 06:28:01;;;;;;;13.03;8.67;;;;;;;;;;5046543;28;20444;-72
2022/05/06 06:30:28;;;;;;;19.58;9.20;;;;;;;;;;5046148;28;20278;-71
2022/05/06 06:32:53;;;;;;;15.00;8.90;;;;;;;;;;5033379;28;20569;-72
2022/05/06 06:35:22;;;;;;;17.17;8.35;;;;;;;;;;5050033;28;20124;-69
2022/05/06 06:37:47;;;;;;;15.48;8.57;;;;;;;;;;5041000;28;20045;-72
2022/05/06 06:40:13;;;;;;;14.32;8.80;;;;;;;;;;5035392;28;20087;-70
2022/05/06 06:42:39;;;;;;;17.35;9.02;;;;;;;;;;5052051;28;20037;-69
2022/05/06 06:45:04;;;;;;;13.13;8.10;;;;;;;;;;5046111;28;20065;-68
2022/05/06 06:47:30;;;;;;;17.95;8.25;;;;;;;;;;5052199;28;20093;-68
2022/05/06 06:49:57;;;;;;;12.87;8.17;;;;;;;;;;5058738;28;20094;-68
2022/05/06 06:52:22;;;;;;;15.65;7.32;;;;;;;;;;5052143;28;20258;-70
2022/05/06 06:54:48;;;;;;;17.43;8.60;;;;;;;;;;5053831;28;20052;-69
2022/05/06 06:57:13;;;;;;;16.83;8.37;;;;;;;;;;5051617;28;20037;-70
2022/05/06 06:59:38;;;;;;;18.57;9.50;;;;;;;;;;5050703;28;20049;-70
2022/05/06 07:02:04;;;;;;;15.73;7.90;;;;;;;;;;5033645;28;20047;-70
2022/05/06 07:04:29;;;;;;;12.85;7.68;;;;;;;;;;5051272;28;20271;-69
2022/05/06 07:12:22;;;;;;;18.20;8.48;;;;;;;;;;5051767;28;20033;-70
2022/05/06 07:14:47;;;;;;;14.23;7.60;;;;;;;;;;5051738;28;20037;-70
2022/05/06 07:17:13;;;;;;;14.30;8.20;;;;;;;;;;5033740;28;20060;-70
2022/05/06 07:19:39;;;;;;;13.75;7.78;;;;;;;;;;5058010;28;20286;-70
2022/05/06 07:22:04;;;;;;;13.95;7.95;;;;;;;;;;5034192;28;20069;-71
2022/05/06 07:24:30;;;;;;;15.18;8.10;;;;;;;;;;5071588;28;20095;-69
2022/05/06 07:26:56;;;;;;;12.15;8.05;;;;;;;;;;5076163;28;20024;-69
2022/05/06 07:29:22;;;;;;;11.80;7.30;;;;;;;;;;5076208;28;20115;-69
2022/05/06 07:31:47;;;;;;;10.93;7.80;;;;;;;;;;5057082;28;20025;-70
2022/05/06 07:34:15;;;;;;;11.95;7.53;;;;;;;;;;5038662;28;20022;-69
2022/05/06 07:36:44;;;;;;;12.00;7.22;;;;;;;;;;5058340;28;20033;-70
2022/05/06 07:39:10;;;;;;;15.68;7.60;;;;;;;;;;5057861;28;20044;-70
2022/05/06 07:41:35;;;;;;;15.90;8.05;;;;;;;;;;5055257;28;20039;-70
2022/05/06 07:44:01;;;;;;;14.07;7.38;;;;;;;;;;5036386;28;20037;-69
2022/05/06 07:46:26;;;;;;;11.90;7.60;;;;;;;;;;5054273;28;20422;-70
2022/05/06 07:48:52;;;;;;;16.07;7.50;;;;;;;;;;5034972;28;20270;-70
2022/05/06 07:51:17;;;;;;;12.02;8.00;;;;;;;;;;5052354;28;20319;-71
2022/05/06 07:53:42;;;;;;;9.97;7.60;;;;;;;;;;5047529;28;20039;-72
2022/05/06 07:56:08;;;;;;;20.00;8.57;;;;;;;;;;5051664;28;20671;-70
2022/05/06 07:58:33;;;;;;;15.95;8.13;;;;;;;;;;5051004;28;20316;-72
2022/05/06 08:00:59;;;;;;;20.48;8.43;;;;;;;;;;5049360;28;20119;-70
2022/05/06 08:06:08;;;;;;;14.82;7.68;;;;;;;;;;5050734;28;20636;-71
2022/05/06 08:08:33;;;;;;;15.05;7.45;;;;;;;;;;5051409;28;20040;-70
2022/05/06 08:10:58;;;;;;;14.50;7.17;;;;;;;;;;5050610;28;20052;-71
2022/05/06 08:13:24;;;;;;;14.48;7.20;;;;;;;;;;5032936;28;20762;-70
2022/05/06 08:15:51;;;;;;;16.80;7.50;;;;;;;;;;5032473;28;20398;-71
2022/05/06 08:18:16;;;;;;;16.83;7.50;;;;;;;16.70;nan;101114.00;5056907;28;20040;-71
2022/05/06 08:20:42;;;;;;;11.65;7.18;;;;;;;;;;5033521;28;20492;-71
2022/05/06 08:23:08;;;;;;;15.45;7.53;;;;;;;;;;5054162;28;20032;-71
2022/05/06 08:25:33;;;;;;;14.68;7.20;;;;;;;;;;5047917;28;20051;-71
2022/05/06 08:27:58;;;;;;;8.50;6.83;;;;;;;;;;5064845;28;20495;-71
2022/05/06 08:30:24;;;;;;;11.17;6.63;;;;;;;;;;5054784;28;20269;-71
2022/05/06 08:32:50;;;;;;;17.25;6.68;;;;;;;;;;5043816;28;20631;-73
2022/05/06 08:35:15;;;;;;;16.92;7.13;;;;;;;;;;5053728;28;20032;-71
2022/05/06 08:37:40;;;;;;;12.85;6.50;;;;;;;;;;5046364;28;20395;-72
2022/05/06 08:40:06;;;;;;;10.40;6.23;;;;;;;;;;5051752;28;20048;-72
2022/05/06 08:42:31;;;;;;;10.18;6.78;;;;;;;;;;5053467;28;20918;-71
2022/05/06 08:53:11;;;;;;;10.48;6.60;;;;;;;;;;5054667;28;20065;-73
2022/05/06 08:55:36;;;;;;;9.85;5.90;;;;;;;;;;5036447;28;20037;-70
2022/05/06 08:58:01;;;;;;;10.77;6.03;;;;;;;18.03;nan;101075.31;5057306;28;20497;-70
2022/05/06 09:00:30;;;;;;;6.90;6.05;;;;;;;;;;5054033;28;20257;-71
2022/05/06 09:02:55;;;;;;;12.00;6.30;;;;;;;;;;5035475;28;20037;-70
2022/05/06 09:05:21;;;;;;;18.50;6.63;;;;;;;;;;5035945;28;20091;-70
2022/05/06 09:08:02;;;;;;;8.95;5.65;;;;;;;18.35;nan;101067.19;5053288;28;20045;-70
2022/05/06 09:10:28;;;;;;;8.27;5.60;;;;;;;;;;5050825;28;20044;-70
2022/05/06 09:12:56;;;;;;;11.32;6.38;;;;;;;;;;5053376;28;20029;-69
2022/05/06 09:18:07;;;;;;;7.43;5.78;;;;;;;;;;5047828;28;20387;-73
2022/05/06 09:20:33;;;;;;;12.98;6.15;;;;;;;18.81;nan;101096.72;5049702;28;20056;-72
2022/05/06 09:23:00;;;;;;;14.43;6.43;;;;;;;18.97;nan;101060.22;5035354;28;20045;-72
2022/05/06 09:25:43;;;;;;;10.13;5.90;;;;;;;19.05;nan;101061.56;5050091;28;20033;-70
2022/05/06 09:28:26;;;;;;;9.07;5.85;;;;;;;19.11;nan;101082.66;5049268;28;20098;-71
2022/05/06 09:31:05;;;;;;;7.00;5.60;;;;;;;19.14;nan;101086.66;5047414;28;20034;-71
2022/05/06 09:33:31;;;;;;;9.25;5.72;;;;;;;;;;5045416;28;20045;-71
2022/05/06 09:35:57;;;;;;;9.38;5.20;;;;;;;;;;5040131;28;20111;-71
2022/05/06 09:38:27;;;;;;;8.52;5.22;;;;;;;19.39;nan;101069.84;5050240;28;20486;-72
2022/05/06 09:40:53;;;;;;;9.38;5.53;;;;;;;19.48;nan;101059.44;5052309;28;20059;-71
2022/05/06 09:43:19;;;;;;;6.88;5.57;;;;;;;19.57;nan;101079.19;5053256;28;20060;-71
2022/05/06 09:45:46;;;;;;;7.32;5.10;;;;;;;19.65;nan;101078.63;5055770;28;20029;-71
2022/05/06 09:48:12;;;;;;;7.65;4.95;;;;;;;;;;5041416;28;20479;-70
2022/05/06 09:50:42;;;;;;;7.43;5.18;;;;;;;19.82;nan;101040.16;5047530;28;20094;-70
2022/05/06 09:53:11;;;;;;;7.78;5.85;;;;;;;;;;5051670;28;20037;-70
2022/05/06 09:55:38;;;;;;;;;;;;;;;20.02;nan;101066.88;5049646;28;20124;-71
2022/05/06 09:58:04;;;;;;;9.25;5.43;;;;;;;20.10;nan;101074.31;5044442;28;20405;-71
2022/05/06 10:00:32;;;;;;;6.60;5.00;;;;;;;20.17;nan;101077.50;5055422;28;20032;-71
2022/05/06 10:02:58;;;;;;;8.32;5.15;;;;;;;;;;5051053;28;20044;-73
2022/05/06 10:05:24;;;;;;;6.35;4.80;;;;;;;20.23;nan;101043.50;5037461;28;20033;-73
2022/05/06 10:07:55;;;;;;;6.85;5.15;;;;;;;20.30;nan;101065.41;5024759;28;20120;-72
2022/05/06 10:10:24;;;;;;;8.77;4.85;;;;;;;20.37;nan;101078.50;5042654;28;20541;-71
2022/05/06 10:12:56;;;;;;;8.32;4.47;;;;;;;20.41;nan;101052.81;5051703;28;20032;-71
2022/05/06 10:15:23;;;;;;;6.55;4.70;;;;;;;;;;5042564;28;20032;-71
2022/05/06 10:17:49;;;;;;;9.05;5.07;;;;;;;20.50;nan;101056.50;5029397;28;20470;-70
2022/05/06 10:20:36;;;;;;;5.95;4.88;;;;;;;20.56;nan;101063.44;5033705;28;20037;-70
2022/05/06 10:23:07;;;;;;;8.63;5.18;;;;;;;;;;5046756;28;20033;-70
2022/05/06 10:25:42;;;;;;;7.75;4.47;;;;;;;20.70;nan;101054.84;5035965;28;20045;-71
2022/05/06 10:34:17;;;;;;;5.93;4.72;;;;;;;20.84;nan;101030.94;5078950;28;20040;-72
2022/05/06 10:36:43;;;;;;;8.98;4.30;;;;;;;20.97;nan;101035.63;5071265;28;20067;-68
2022/05/06 10:39:36;;;;;;;5.80;4.45;;;;;;;21.05;nan;101035.06;5066977;28;20021;-69
2022/05/06 10:42:06;;;;;;;8.70;4.75;;;;;;;21.11;nan;101043.84;5067125;28;20037;-70
2022/05/06 10:44:38;;;;;;;5.80;4.60;;;;;;;21.20;nan;101032.25;5060333;28;20072;-70
2022/05/06 10:47:12;;;;;;;5.38;3.80;;;;;;;21.29;nan;101037.03;5071440;28;20021;-70
2022/05/06 10:49:38;;;;;;;8.27;4.40;;;;;;;21.27;nan;101023.91;5063498;28;20036;-72
2022/05/06 10:52:15;;;;;;;6.53;4.05;;;;;;;21.34;nan;101028.94;5051772;28;20029;-70
2022/05/06 10:54:48;;;;;;;8.40;4.07;;;;;;;21.39;nan;101002.91;5071100;28;20033;-74
2022/05/06 10:57:16;;;;;;;6.40;4.65;;;;;;;21.43;nan;100979.84;5062482;28;20078;-76
2022/05/06 10:59:48;;;;;;;6.05;4.10;;;;;;;21.50;nan;101037.66;5056973;28;20128;-75
2022/05/06 11:02:14;;;;;;;6.95;4.50;;;;;;;21.55;nan;101024.19;5066290;28;20030;-75
2022/05/06 11:04:43;;;;;;;5.13;4.15;;;;;;;21.57;nan;101016.69;5058267;28;20039;-76
2022/05/06 11:07:13;;;;;;;10.13;4.10;;;;;;;21.65;nan;101059.75;5047625;28;20037;-77
2022/05/06 11:09:38;;;;;;;8.55;4.18;;;;;;;;;;5063037;28;20419;-75
2022/05/06 11:12:04;;;;;;;7.38;4.30;;;;;;;21.71;nan;100980.06;5053932;28;20052;-75
2022/05/06 11:14:29;;;;;;;7.70;4.03;;;;;;;21.78;nan;101057.47;5050633;28;20071;-72
2022/05/06 11:17:13;;;;;;;4.40;4.00;;;;;;;;;;5049998;28;20040;-72
2022/05/06 11:19:38;;;;;;;7.40;4.18;;;;;;;21.83;nan;101001.13;5048667;28;20033;-72
2022/05/06 11:22:11;;;;;;;9.25;4.68;;;;;;;21.90;nan;100998.09;5041337;28;20041;-73
2022/05/06 11:24:37;;;;;;;6.38;3.85;;;;;;;21.93;nan;101025.13;5043560;28;20033;-72
2022/05/06 11:27:19;;;;;;;6.45;4.20;;;;;;;21.98;nan;100997.47;5046110;28;20040;-73
2022/05/06 11:29:58;;;;;;;5.60;3.70;;;;;;;22.04;nan;101001.69;5050262;28;20036;-73
2022/05/06 11:32:25;;;;;;;6.72;3.45;;;;;;;22.11;nan;101002.13;5049208;28;20110;-72
2022/05/06 11:34:54;;;;;;;7.88;3.50;;;;;;;;;;5031746;28;20521;-72
2022/05/06 11:37:24;;;;;;;7.00;3.72;;;;;;;22.16;nan;101007.44;5050781;28;20171;-73
2022/05/06 11:39:51;;;;;;;4.05;3.63;;;;;;;22.11;nan;100943.13;5051027;28;20557;-73
2022/05/06 11:42:23;;;;;;;4.00;3.60;;;;;;;22.18;nan;101007.16;5047580;28;20106;-74
2022/05/06 11:47:43;;;;;;;4.72;3.70;;;;;;;22.33;nan;100988.19;5055761;28;20109;-74
2022/05/06 11:50:09;;;;;;;4.40;3.78;;;;;;;22.39;nan;100970.94;5045879;28;20065;-73
2022/05/06 11:52:38;;;;;;;5.05;3.55;;;;;;;22.39;nan;100972.84;5048996;28;20517;-72
2022/05/06 11:55:07;;;;;;;6.45;4.05;;;;;;;22.45;nan;100977.03;5016637;28;20035;-73
2022/05/06 11:57:38;;;;;;;11.38;3.90;;;;;;;22.47;nan;100993.66;5048796;28;20539;-72
2022/05/06 12:00:07;;;;;;;6.53;4.18;;;;;;;22.48;nan;100968.38;5016573;28;20427;-71
2022/05/06 12:02:33;;;;;;;7.70;4.20;;;;;;;22.56;nan;101026.81;5023788;28;20029;-71
2022/05/06 12:04:58;;;;;;;6.13;3.53;;;;;;;22.59;nan;100971.72;5050217;28;20122;-71
2022/05/06 12:07:48;;;;;;;7.28;3.58;;;;;;;22.70;nan;100975.88;5049870;28;20372;-70
2022/05/06 12:10:27;;;;;;;7.25;3.45;;;;;;;22.71;nan;101006.97;5026647;28;20119;-71
2022/05/06 12:12:58;;;;;;;6.28;3.50;;;;;;;22.83;nan;100987.75;5049658;28;20196;-76
2022/05/06 12:15:37;;;;;;;4.70;3.40;;;;;;;22.89;nan;100982.00;5052859;28;20036;-76
2022/05/06 12:18:07;;;;;;;;;;;;;;;22.97;nan;100969.00;5035689;28;20456;-77
2022/05/06 12:20:41;;;;;;;4.60;3.05;;;;;;;22.99;nan;100989.13;5040433;28;19960;-76
2022/05/06 12:23:08;;;;;;;3.90;3.00;;;;;;;22.95;nan;100980.03;5033319;28;20554;-76
2022/05/06 12:25:41;;;;;;;5.60;3.38;;;;;;;22.97;nan;101002.03;5046684;28;20048;-75
2022/05/06 12:28:07;;;;;;;5.63;3.28;;;;;;;23.03;nan;100963.25;5052171;28;20499;-75
2022/05/06 12:30:38;;;;;;;6.57;3.30;;;;;;;23.01;nan;100894.81;5048387;28;20039;-76
2022/05/06 12:33:11;;;;;;;5.07;3.00;;;;;;;23.06;nan;100941.19;5053031;28;20044;-75
2022/05/06 12:36:01;;;;;;;6.95;3.28;;;;;;;23.12;nan;100972.22;5049916;28;20171;-75
2022/05/06 12:38:47;;;;;;;5.10;3.20;;;;;;;23.12;nan;100948.06;5036753;28;20029;-77
2022/05/06 12:41:27;;;;;;;5.18;3.30;;;;;;;23.12;nan;100950.75;5048368;28;20507;-70
2022/05/06 12:43:58;;;;;;;4.20;3.25;;;;;;;23.01;nan;100938.59;5048654;28;20190;-70
2022/05/06 12:46:36;;;;;;;7.82;3.28;;;;;;;23.02;nan;100977.78;5053034;28;20065;-74
2022/05/06 12:51:46;;;;;;;7.32;3.00;;;;;;;23.03;nan;100920.28;5049098;28;20452;-75
2022/05/06 12:54:12;;;;;;;4.82;3.13;;;;;;;22.97;nan;100939.44;5019308;28;20047;-74
2022/05/06 12:56:39;;;;;;;7.88;3.65;;;;;;;23.04;nan;100943.38;5045421;28;20037;-75
2022/05/06 12:59:05;;;;;;;5.45;3.20;;;;;;;;;;5049580;28;20053;-75
2022/05/06 13:01:31;;;;;;;6.28;2.78;;;;;;;23.03;nan;100968.63;5048276;28;20049;-75
2022/05/06 13:03:57;;;;;;;4.05;2.95;;;;;;;23.08;nan;100911.31;5059451;28;20119;-75
2022/05/06 13:06:22;;;;;;;3.92;2.92;;;;;;;23.06;nan;100924.28;5033305;28;20117;-76
2022/05/06 13:08:47;;;;;;;4.97;3.00;;;;;;;;;;5053716;28;20040;-72
2022/05/06 13:11:13;;;;;;;4.50;2.80;;;;;;;23.09;nan;100948.66;5057504;28;20048;-72
2022/05/06 13:13:38;;;;;;;7.97;3.45;;;;;;;23.14;nan;100912.84;5058054;28;20056;-71
2022/05/06 13:16:04;;;;;;;6.47;3.20;;;;;;;;;;5033805;28;20052;-74
2022/05/06 13:18:30;;;;;;;5.18;3.13;;;;;;;23.22;nan;100941.69;5034167;28;20040;-71
2022/05/06 13:20:56;;;;;;;3.88;2.90;;;;;;;23.27;nan;100914.75;5048806;28;20033;-71
2022/05/06 13:23:21;;;;;;;6.35;3.38;;;;;;;23.27;nan;100924.69;5037484;28;20502;-72
2022/05/06 13:25:48;;;;;;;4.40;2.88;;;;;;;23.28;nan;100910.19;5050649;28;20044;-72
2022/05/06 13:28:15;;;;;;;3.92;2.67;;;;;;;23.14;nan;100910.16;5020440;28;20044;-70
2022/05/06 13:30:41;;;;;;;5.57;2.72;;;;;;;23.01;nan;100884.06;5048490;28;20036;-70
2022/05/06 13:33:06;;;;;;;3.92;2.92;;;;;;;23.01;nan;100892.94;5038722;28;20088;-74
2022/05/06 13:35:31;;;;;;;9.45;3.60;;;;;;;;;;5029962;28;20033;-72
2022/05/06 13:37:57;;;;;;;7.38;3.42;;;;;;;23.06;nan;100930.44;5048283;28;20123;-70
2022/05/06 13:40:24;;;;;;;4.45;2.72;;;;;;;23.16;nan;100958.22;5052254;28;20044;-69
2022/05/06 13:42:49;;;;;;;7.95;3.08;;;;;;;23.16;nan;101003.91;5034787;28;20037;-70
2022/05/06 13:45:15;;;;;;;7.47;2.85;;;;;;;23.13;nan;100842.19;5027442;28;20098;-69
2022/05/06 13:47:40;;;;;;;7.88;2.83;;;;;;;23.20;nan;100900.09;5041420;28;20037;-71
2022/05/06 13:50:07;;;;;;;3.85;2.85;;;;;;;23.18;nan;100888.84;5050092;28;20131;-72
2022/05/06 13:52:33;;;;;;;7.68;2.78;;;;;;;23.20;nan;100875.91;5043479;28;20031;-75
2022/05/06 13:54:59;;;;;;;9.02;3.30;;;;;;;23.22;nan;100881.78;5051059;28;20029;-76
2022/05/06 14:00:10;;;;;;;5.75;3.40;;;;;;;23.29;nan;100906.38;5050454;28;20041;-72
2022/05/06 14:02:36;;;;;;;10.77;3.10;;;;;;;23.24;nan;100823.97;5040015;28;20038;-73
2022/05/06 14:05:02;;;;;;;12.77;2.97;;;;;;;23.32;nan;100865.47;5030797;28;20442;-72
2022/05/06 14:07:27;;;;;;;16.90;3.72;;;;;;;23.28;nan;100881.41;5044274;28;20037;-73
2022/05/06 14:09:53;;;;;;;4.57;2.83;;;;;;;23.34;nan;100882.91;5041865;28;20033;-71
2022/05/06 14:12:19;;;;;;;4.47;2.65;;;;;;;23.31;nan;100880.00;5050654;28;20037;-69
2022/05/06 14:14:44;;;;;;;4.32;2.92;;;;;;;23.29;nan;100923.28;5033925;28;20094;-72
2022/05/06 14:17:10;;;;;;;6.25;2.80;;;;;;;23.29;nan;100864.19;5033664;28;20045;-72